sensor_id;sensor_type;location;lat;lon;timestamp;temperature;humidity
62476;DHT22;50739;45.670;11.936;2023-03-31T00:02:39;12.72;83.84
62476;DHT22;50739;45.670;11.936;2023-03-31T00:07:41;12.65;84.18
62476;DHT22;50739;45.670;11.936;2023-03-31T00:12:43;12.61;84.61
62476;DHT22;50739;45.670;11.936;2023-03-31T00:17:46;12.69;84.19
62476;DHT22;50739;45.670;11.936;2023-03-31T00:22:48;12.62;84.40
62476;DHT22;50739;45.670;11.936;2023-03-31T00:27:50;12.67;84.37
62476;DHT22;50739;45.670;11.936;2023-03-31T00:32:53;12.60;84.89
62476;DHT22;50739;45.670;11.936;2023-03-31T00:37:56;12.57;84.98
62476;DHT22;50739;45.670;11.936;2023-03-31T00:42:59;12.65;84.87
62476;DHT22;50739;45.670;11.936;2023-03-31T00:48:06;12.62;84.60
62476;DHT22;50739;45.670;11.936;2023-03-31T00:53:12;12.55;84.73
62476;DHT22;50739;45.670;11.936;2023-03-31T00:58:18;12.58;84.85
62476;DHT22;50739;45.670;11.936;2023-03-31T01:03:22;12.57;84.86
62476;DHT22;50739;45.670;11.936;2023-03-31T01:08:25;12.58;84.79
62476;DHT22;50739;45.670;11.936;2023-03-31T01:13:29;12.48;85.14
62476;DHT22;50739;45.670;11.936;2023-03-31T01:18:33;12.60;84.49
62476;DHT22;50739;45.670;11.936;2023-03-31T01:30:00;12.65;84.42
62476;DHT22;50739;45.670;11.936;2023-03-31T01:35:30;12.68;84.40
62476;DHT22;50739;45.670;11.936;2023-03-31T01:41:06;12.61;84.68
62476;DHT22;50739;45.670;11.936;2023-03-31T01:46:16;12.52;84.89
62476;DHT22;50739;45.670;11.936;2023-03-31T01:51:31;12.54;85.10
62476;DHT22;50739;45.670;11.936;2023-03-31T01:56:38;12.58;84.64
62476;DHT22;50739;45.670;11.936;2023-03-31T02:01:46;12.58;84.52
62476;DHT22;50739;45.670;11.936;2023-03-31T02:06:53;12.57;84.47
62476;DHT22;50739;45.670;11.936;2023-03-31T02:11:58;12.43;84.95
62476;DHT22;50739;45.670;11.936;2023-03-31T02:17:01;12.19;86.07
62476;DHT22;50739;45.670;11.936;2023-03-31T02:22:05;12.38;85.32
62476;DHT22;50739;45.670;11.936;2023-03-31T02:27:14;12.34;85.40
62476;DHT22;50739;45.670;11.936;2023-03-31T02:32:21;12.34;85.27
62476;DHT22;50739;45.670;11.936;2023-03-31T02:37:24;12.26;85.45
62476;DHT22;50739;45.670;11.936;2023-03-31T02:42:27;12.40;84.90
62476;DHT22;50739;45.670;11.936;2023-03-31T02:47:29;12.38;84.94
62476;DHT22;50739;45.670;11.936;2023-03-31T02:52:39;12.44;84.59
62476;DHT22;50739;45.670;11.936;2023-03-31T02:58:00;12.52;84.45
62476;DHT22;50739;45.670;11.936;2023-03-31T03:03:19;12.40;84.91
62476;DHT22;50739;45.670;11.936;2023-03-31T03:08:33;12.48;84.63
62476;DHT22;50739;45.670;11.936;2023-03-31T03:13:45;12.51;84.43
62476;DHT22;50739;45.670;11.936;2023-03-31T03:18:55;12.44;85.05
62476;DHT22;50739;45.670;11.936;2023-03-31T03:23:57;12.40;85.30
62476;DHT22;50739;45.670;11.936;2023-03-31T03:29:02;12.34;85.78
62476;DHT22;50739;45.670;11.936;2023-03-31T03:34:04;12.43;85.33
62476;DHT22;50739;45.670;11.936;2023-03-31T03:39:07;12.48;85.05
62476;DHT22;50739;45.670;11.936;2023-03-31T03:44:10;12.44;85.31
62476;DHT22;50739;45.670;11.936;2023-03-31T03:49:12;12.41;85.36
62476;DHT22;50739;45.670;11.936;2023-03-31T03:54:13;12.41;85.27
62476;DHT22;50739;45.670;11.936;2023-03-31T03:59:17;12.36;85.64
62476;DHT22;50739;45.670;11.936;2023-03-31T04:04:19;12.41;85.65
62476;DHT22;50739;45.670;11.936;2023-03-31T04:09:20;12.43;85.48
62476;DHT22;50739;45.670;11.936;2023-03-31T04:14:24;12.43;85.69
62476;DHT22;50739;45.670;11.936;2023-03-31T04:19:25;12.40;85.82
62476;DHT22;50739;45.670;11.936;2023-03-31T04:24:27;12.38;85.90
62476;DHT22;50739;45.670;11.936;2023-03-31T04:29:33;12.43;85.75
62476;DHT22;50739;45.670;11.936;2023-03-31T04:34:36;12.37;86.09
62476;DHT22;50739;45.670;11.936;2023-03-31T04:39:38;12.27;86.34
62476;DHT22;50739;45.670;11.936;2023-03-31T04:44:41;12.19;86.59
62476;DHT22;50739;45.670;11.936;2023-03-31T04:49:43;12.23;86.24
62476;DHT22;50739;45.670;11.936;2023-03-31T04:54:45;12.33;86.30
62476;DHT22;50739;45.670;11.936;2023-03-31T04:59:48;12.27;86.13
62476;DHT22;50739;45.670;11.936;2023-03-31T05:04:50;12.29;86.20
62476;DHT22;50739;45.670;11.936;2023-03-31T05:09:52;12.24;86.48
62476;DHT22;50739;45.670;11.936;2023-03-31T05:14:55;12.26;86.26
62476;DHT22;50739;45.670;11.936;2023-03-31T05:19:56;12.30;86.43
62476;DHT22;50739;45.670;11.936;2023-03-31T05:24:58;12.36;85.95
62476;DHT22;50739;45.670;11.936;2023-03-31T05:30:02;12.38;86.27
62476;DHT22;50739;45.670;11.936;2023-03-31T05:35:05;12.20;86.72
62476;DHT22;50739;45.670;11.936;2023-03-31T05:40:08;12.29;86.37
62476;DHT22;50739;45.670;11.936;2023-03-31T05:45:12;12.38;86.19
62476;DHT22;50739;45.670;11.936;2023-03-31T05:50:14;12.40;85.97
62476;DHT22;50739;45.670;11.936;2023-03-31T05:55:16;12.47;85.96
62476;DHT22;50739;45.670;11.936;2023-03-31T06:00:20;12.44;85.85
62476;DHT22;50739;45.670;11.936;2023-03-31T06:05:22;12.40;86.10
62476;DHT22;50739;45.670;11.936;2023-03-31T06:10:25;12.33;86.17
62476;DHT22;50739;45.670;11.936;2023-03-31T06:15:29;12.33;86.49
62476;DHT22;50739;45.670;11.936;2023-03-31T06:20:31;12.40;86.37
62476;DHT22;50739;45.670;11.936;2023-03-31T06:25:33;12.47;86.13
62476;DHT22;50739;45.670;11.936;2023-03-31T06:30:36;12.44;86.59
62476;DHT22;50739;45.670;11.936;2023-03-31T06:35:39;12.44;86.84
62476;DHT22;50739;45.670;11.936;2023-03-31T06:40:41;12.45;87.58
62476;DHT22;50739;45.670;11.936;2023-03-31T06:45:44;12.47;87.93
62476;DHT22;50739;45.670;11.936;2023-03-31T06:50:46;12.50;88.00
62476;DHT22;50739;45.670;11.936;2023-03-31T06:55:48;12.64;87.27
62476;DHT22;50739;45.670;11.936;2023-03-31T07:00:51;12.65;87.62
62476;DHT22;50739;45.670;11.936;2023-03-31T07:05:53;12.48;88.79
62476;DHT22;50739;45.670;11.936;2023-03-31T07:10:57;12.65;87.92
62476;DHT22;50739;45.670;11.936;2023-03-31T07:16:01;12.57;88.75
62476;DHT22;50739;45.670;11.936;2023-03-31T07:21:04;12.48;89.23
62476;DHT22;50739;45.670;11.936;2023-03-31T07:26:07;12.62;88.59
62476;DHT22;50739;45.670;11.936;2023-03-31T07:31:13;12.52;89.21
62476;DHT22;50739;45.670;11.936;2023-03-31T07:36:16;12.47;89.68
62476;DHT22;50739;45.670;11.936;2023-03-31T07:41:19;12.48;89.44
62476;DHT22;50739;45.670;11.936;2023-03-31T07:46:25;12.44;89.64
62476;DHT22;50739;45.670;11.936;2023-03-31T07:51:27;12.54;89.40
62476;DHT22;50739;45.670;11.936;2023-03-31T07:56:29;12.43;89.44
62476;DHT22;50739;45.670;11.936;2023-03-31T08:01:32;12.54;89.39
62476;DHT22;50739;45.670;11.936;2023-03-31T08:06:34;12.57;89.19
62476;DHT22;50739;45.670;11.936;2023-03-31T08:11:36;12.61;89.65
62476;DHT22;50739;45.670;11.936;2023-03-31T08:16:39;12.65;88.78
62476;DHT22;50739;45.670;11.936;2023-03-31T08:21:41;12.57;89.42
62476;DHT22;50739;45.670;11.936;2023-03-31T08:26:43;12.60;89.41
62476;DHT22;50739;45.670;11.936;2023-03-31T08:31:46;12.61;89.95
62476;DHT22;50739;45.670;11.936;2023-03-31T08:36:48;12.61;89.49
62476;DHT22;50739;45.670;11.936;2023-03-31T08:41:54;12.57;90.28
62476;DHT22;50739;45.670;11.936;2023-03-31T08:47:01;12.71;89.53
62476;DHT22;50739;45.670;11.936;2023-03-31T08:52:08;12.65;89.65
62476;DHT22;50739;45.670;11.936;2023-03-31T08:57:15;12.71;89.60
62476;DHT22;50739;45.670;11.936;2023-03-31T09:02:27;12.84;88.92
62476;DHT22;50739;45.670;11.936;2023-03-31T09:07:36;12.74;88.99
62476;DHT22;50739;45.670;11.936;2023-03-31T09:12:46;12.81;88.82
62476;DHT22;50739;45.670;11.936;2023-03-31T09:17:54;12.85;88.80
62476;DHT22;50739;45.670;11.936;2023-03-31T09:23:00;12.88;88.87
62476;DHT22;50739;45.670;11.936;2023-03-31T09:28:08;12.79;89.63
62476;DHT22;50739;45.670;11.936;2023-03-31T09:33:17;12.84;89.17
62476;DHT22;50739;45.670;11.936;2023-03-31T09:38:19;12.95;88.94
62476;DHT22;50739;45.670;11.936;2023-03-31T09:43:23;12.95;88.73
62476;DHT22;50739;45.670;11.936;2023-03-31T09:48:29;13.03;88.72
62476;DHT22;50739;45.670;11.936;2023-03-31T09:53:38;13.06;88.71
62476;DHT22;50739;45.670;11.936;2023-03-31T09:58:41;13.06;88.43
62476;DHT22;50739;45.670;11.936;2023-03-31T10:03:49;12.98;88.77
62476;DHT22;50739;45.670;11.936;2023-03-31T10:08:53;13.10;88.31
62476;DHT22;50739;45.670;11.936;2023-03-31T10:14:01;13.13;88.41
62476;DHT22;50739;45.670;11.936;2023-03-31T10:19:19;13.15;88.43
62476;DHT22;50739;45.670;11.936;2023-03-31T10:24:21;13.24;87.66
62476;DHT22;50739;45.670;11.936;2023-03-31T10:29:31;13.26;87.90
62476;DHT22;50739;45.670;11.936;2023-03-31T10:34:38;13.15;87.97
62476;DHT22;50739;45.670;11.936;2023-03-31T10:39:42;13.24;87.83
62476;DHT22;50739;45.670;11.936;2023-03-31T10:44:45;13.37;87.61
62476;DHT22;50739;45.670;11.936;2023-03-31T10:49:50;13.34;87.49
62476;DHT22;50739;45.670;11.936;2023-03-31T10:54:58;13.37;86.33
62476;DHT22;50739;45.670;11.936;2023-03-31T11:00:08;13.28;86.91
62476;DHT22;50739;45.670;11.936;2023-03-31T11:05:18;13.34;86.36
62476;DHT22;50739;45.670;11.936;2023-03-31T11:10:33;13.44;85.48
62476;DHT22;50739;45.670;11.936;2023-03-31T11:15:41;13.33;86.73
62476;DHT22;50739;45.670;11.936;2023-03-31T11:20:54;13.42;86.12
62476;DHT22;50739;45.670;11.936;2023-03-31T11:26:01;13.42;86.31
62476;DHT22;50739;45.670;11.936;2023-03-31T11:31:16;13.32;86.50
62476;DHT22;50739;45.670;11.936;2023-03-31T11:36:47;13.42;85.79
62476;DHT22;50739;45.670;11.936;2023-03-31T11:41:55;13.54;85.74
62476;DHT22;50739;45.670;11.936;2023-03-31T11:47:00;13.61;85.88
62476;DHT22;50739;45.670;11.936;2023-03-31T11:52:13;13.78;85.83
62476;DHT22;50739;45.670;11.936;2023-03-31T11:57:19;14.08;84.98
62476;DHT22;50739;45.670;11.936;2023-03-31T12:02:30;14.34;83.17
62476;DHT22;50739;45.670;11.936;2023-03-31T12:07:38;14.34;83.89
62476;DHT22;50739;45.670;11.936;2023-03-31T12:12:44;14.47;83.93
62476;DHT22;50739;45.670;11.936;2023-03-31T12:17:51;14.59;82.57
62476;DHT22;50739;45.670;11.936;2023-03-31T12:22:57;14.73;81.38
62476;DHT22;50739;45.670;11.936;2023-03-31T12:28:01;14.60;81.02
62476;DHT22;50739;45.670;11.936;2023-03-31T12:33:06;14.81;80.74
62476;DHT22;50739;45.670;11.936;2023-03-31T12:38:20;14.80;79.76
62476;DHT22;50739;45.670;11.936;2023-03-31T12:43:44;14.87;80.23
62476;DHT22;50739;45.670;11.936;2023-03-31T12:48:57;14.60;80.72
62476;DHT22;50739;45.670;11.936;2023-03-31T12:59:31;14.48;80.47
62476;DHT22;50739;45.670;11.936;2023-03-31T13:04:33;14.46;81.35
62476;DHT22;50739;45.670;11.936;2023-03-31T13:09:48;14.59;81.38
62476;DHT22;50739;45.670;11.936;2023-03-31T13:14:55;14.64;80.44
62476;DHT22;50739;45.670;11.936;2023-03-31T13:20:22;14.77;80.85
62476;DHT22;50739;45.670;11.936;2023-03-31T13:25:50;14.73;81.10
62476;DHT22;50739;45.670;11.936;2023-03-31T13:30:57;14.60;80.81
62476;DHT22;50739;45.670;11.936;2023-03-31T13:41:51;14.61;81.30
62476;DHT22;50739;45.670;11.936;2023-03-31T13:47:31;14.65;81.10
62476;DHT22;50739;45.670;11.936;2023-03-31T13:52:43;14.65;80.90
62476;DHT22;50739;45.670;11.936;2023-03-31T13:58:25;14.67;80.61
62476;DHT22;50739;45.670;11.936;2023-03-31T14:03:37;14.68;80.29
62476;DHT22;50739;45.670;11.936;2023-03-31T14:08:48;14.63;80.37
62476;DHT22;50739;45.670;11.936;2023-03-31T14:14:00;14.67;80.55
62476;DHT22;50739;45.670;11.936;2023-03-31T14:19:31;14.63;80.81
62476;DHT22;50739;45.670;11.936;2023-03-31T14:24:37;14.51;80.61
62476;DHT22;50739;45.670;11.936;2023-03-31T14:29:47;14.56;80.40
62476;DHT22;50739;45.670;11.936;2023-03-31T14:34:58;14.54;80.21
62476;DHT22;50739;45.670;11.936;2023-03-31T14:40:03;14.60;80.58
62476;DHT22;50739;45.670;11.936;2023-03-31T14:45:17;14.63;81.09
62476;DHT22;50739;45.670;11.936;2023-03-31T14:50:20;14.53;81.21
62476;DHT22;50739;45.670;11.936;2023-03-31T14:55:25;14.46;81.40
62476;DHT22;50739;45.670;11.936;2023-03-31T15:00:31;14.47;81.31
62476;DHT22;50739;45.670;11.936;2023-03-31T15:05:35;14.44;81.33
62476;DHT22;50739;45.670;11.936;2023-03-31T15:10:39;14.54;81.57
62476;DHT22;50739;45.670;11.936;2023-03-31T15:15:45;14.53;81.43
62476;DHT22;50739;45.670;11.936;2023-03-31T15:20:47;14.59;81.38
62476;DHT22;50739;45.670;11.936;2023-03-31T15:25:49;14.59;81.67
62476;DHT22;50739;45.670;11.936;2023-03-31T15:30:53;14.54;81.93
62476;DHT22;50739;45.670;11.936;2023-03-31T15:35:56;14.53;82.36
62476;DHT22;50739;45.670;11.936;2023-03-31T15:40:58;14.53;82.20
62476;DHT22;50739;45.670;11.936;2023-03-31T15:46:02;14.53;82.23
62476;DHT22;50739;45.670;11.936;2023-03-31T15:51:06;14.61;82.18
62476;DHT22;50739;45.670;11.936;2023-03-31T15:56:23;14.15;83.88
62476;DHT22;50739;45.670;11.936;2023-03-31T16:01:29;14.27;83.75
62476;DHT22;50739;45.670;11.936;2023-03-31T16:06:42;14.22;83.45
62476;DHT22;50739;45.670;11.936;2023-03-31T16:11:47;14.25;83.05
62476;DHT22;50739;45.670;11.936;2023-03-31T16:16:58;14.19;82.95
62476;DHT22;50739;45.670;11.936;2023-03-31T16:22:01;14.20;82.93
62476;DHT22;50739;45.670;11.936;2023-03-31T16:27:05;14.10;83.31
62476;DHT22;50739;45.670;11.936;2023-03-31T16:32:12;14.16;83.38
62476;DHT22;50739;45.670;11.936;2023-03-31T16:37:14;14.06;83.79
62476;DHT22;50739;45.670;11.936;2023-03-31T16:42:16;13.94;84.87
62476;DHT22;50739;45.670;11.936;2023-03-31T16:47:19;14.08;84.53
62476;DHT22;50739;45.670;11.936;2023-03-31T16:52:21;14.01;84.96
62476;DHT22;50739;45.670;11.936;2023-03-31T16:57:23;13.94;85.90
62476;DHT22;50739;45.670;11.936;2023-03-31T17:02:26;13.83;86.87
62476;DHT22;50739;45.670;11.936;2023-03-31T17:07:28;13.77;87.60
62476;DHT22;50739;45.670;11.936;2023-03-31T17:12:30;13.86;87.12
62476;DHT22;50739;45.670;11.936;2023-03-31T17:17:34;13.68;87.87
62476;DHT22;50739;45.670;11.936;2023-03-31T17:22:36;13.74;87.45
62476;DHT22;50739;45.670;11.936;2023-03-31T17:27:38;13.44;88.78
62476;DHT22;50739;45.670;11.936;2023-03-31T17:32:41;13.77;87.12
62476;DHT22;50739;45.670;11.936;2023-03-31T17:37:43;13.57;87.93
62476;DHT22;50739;45.670;11.936;2023-03-31T17:42:45;13.32;88.46
62476;DHT22;50739;45.670;11.936;2023-03-31T17:47:48;13.30;88.78
62476;DHT22;50739;45.670;11.936;2023-03-31T17:52:51;13.32;88.58
62476;DHT22;50739;45.670;11.936;2023-03-31T17:57:53;13.27;88.52
62476;DHT22;50739;45.670;11.936;2023-03-31T18:02:56;13.40;88.16
62476;DHT22;50739;45.670;11.936;2023-03-31T18:07:58;13.12;89.33
62476;DHT22;50739;45.670;11.936;2023-03-31T18:13:00;13.09;89.55
62476;DHT22;50739;45.670;11.936;2023-03-31T18:18:04;13.09;89.77
62476;DHT22;50739;45.670;11.936;2023-03-31T18:23:06;13.07;89.74
62476;DHT22;50739;45.670;11.936;2023-03-31T18:28:08;13.12;89.96
62476;DHT22;50739;45.670;11.936;2023-03-31T18:33:11;13.12;90.01
62476;DHT22;50739;45.670;11.936;2023-03-31T18:38:13;13.10;89.93
62476;DHT22;50739;45.670;11.936;2023-03-31T18:43:16;13.07;89.96
62476;DHT22;50739;45.670;11.936;2023-03-31T18:48:21;12.96;90.28
62476;DHT22;50739;45.670;11.936;2023-03-31T18:53:23;12.95;90.34
62476;DHT22;50739;45.670;11.936;2023-03-31T18:58:27;12.87;90.25
62476;DHT22;50739;45.670;11.936;2023-03-31T19:03:31;12.77;90.28
62476;DHT22;50739;45.670;11.936;2023-03-31T19:08:33;12.88;89.09
62476;DHT22;50739;45.670;11.936;2023-03-31T19:13:35;12.91;89.00
62476;DHT22;50739;45.670;11.936;2023-03-31T19:18:40;12.85;88.96
62476;DHT22;50739;45.670;11.936;2023-03-31T19:23:42;13.00;88.50
62476;DHT22;50739;45.670;11.936;2023-03-31T19:28:45;12.87;88.94
62476;DHT22;50739;45.670;11.936;2023-03-31T19:33:49;13.03;88.18
62476;DHT22;50739;45.670;11.936;2023-03-31T19:38:51;12.95;88.08
62476;DHT22;50739;45.670;11.936;2023-03-31T19:43:53;12.91;88.30
62476;DHT22;50739;45.670;11.936;2023-03-31T19:48:56;12.95;88.32
62476;DHT22;50739;45.670;11.936;2023-03-31T19:53:58;13.05;87.83
62476;DHT22;50739;45.670;11.936;2023-03-31T19:59:00;12.87;88.05
62476;DHT22;50739;45.670;11.936;2023-03-31T20:04:03;12.99;87.20
62476;DHT22;50739;45.670;11.936;2023-03-31T20:09:05;12.69;88.46
62476;DHT22;50739;45.670;11.936;2023-03-31T20:14:07;12.47;89.00
62476;DHT22;50739;45.670;11.936;2023-03-31T20:19:11;12.65;88.35
62476;DHT22;50739;45.670;11.936;2023-03-31T20:24:16;12.33;89.23
62476;DHT22;50739;45.670;11.936;2023-03-31T20:29:19;12.45;88.51
62476;DHT22;50739;45.670;11.936;2023-03-31T20:34:22;12.57;88.16
62476;DHT22;50739;45.670;11.936;2023-03-31T20:39:26;12.69;87.40
62476;DHT22;50739;45.670;11.936;2023-03-31T20:44:28;12.48;88.27
62476;DHT22;50739;45.670;11.936;2023-03-31T20:49:33;12.26;88.63
62476;DHT22;50739;45.670;11.936;2023-03-31T20:54:35;12.07;89.21
62476;DHT22;50739;45.670;11.936;2023-03-31T20:59:37;12.10;89.54
62476;DHT22;50739;45.670;11.936;2023-03-31T21:04:40;11.92;90.09
62476;DHT22;50739;45.670;11.936;2023-03-31T21:09:42;11.95;90.28
62476;DHT22;50739;45.670;11.936;2023-03-31T21:14:44;12.12;89.62
62476;DHT22;50739;45.670;11.936;2023-03-31T21:19:47;12.00;89.84
62476;DHT22;50739;45.670;11.936;2023-03-31T21:24:49;12.14;89.32
62476;DHT22;50739;45.670;11.936;2023-03-31T21:29:51;12.06;89.66
62476;DHT22;50739;45.670;11.936;2023-03-31T21:34:54;12.07;89.51
62476;DHT22;50739;45.670;11.936;2023-03-31T21:39:56;12.00;89.82
62476;DHT22;50739;45.670;11.936;2023-03-31T21:44:58;12.06;89.06
62476;DHT22;50739;45.670;11.936;2023-03-31T21:50:01;12.10;89.03
62476;DHT22;50739;45.670;11.936;2023-03-31T21:55:04;11.83;89.77
62476;DHT22;50739;45.670;11.936;2023-03-31T22:00:06;11.67;90.58
62476;DHT22;50739;45.670;11.936;2023-03-31T22:05:13;11.62;89.88
62476;DHT22;50739;45.670;11.936;2023-03-31T22:10:15;11.52;90.19
62476;DHT22;50739;45.670;11.936;2023-03-31T22:15:17;11.57;90.02
62476;DHT22;50739;45.670;11.936;2023-03-31T22:20:20;11.50;90.37
62476;DHT22;50739;45.670;11.936;2023-03-31T22:25:22;11.41;90.26
62476;DHT22;50739;45.670;11.936;2023-03-31T22:30:24;11.40;89.99
62476;DHT22;50739;45.670;11.936;2023-03-31T22:35:28;11.35;90.08
62476;DHT22;50739;45.670;11.936;2023-03-31T22:40:29;11.26;90.70
62476;DHT22;50739;45.670;11.936;2023-03-31T22:45:34;11.17;90.58
62476;DHT22;50739;45.670;11.936;2023-03-31T22:50:38;11.13;90.72
62476;DHT22;50739;45.670;11.936;2023-03-31T22:55:41;11.10;91.06
62476;DHT22;50739;45.670;11.936;2023-03-31T23:00:43;11.16;90.72
62476;DHT22;50739;45.670;11.936;2023-03-31T23:05:46;11.17;90.57
62476;DHT22;50739;45.670;11.936;2023-03-31T23:10:55;11.14;90.19
62476;DHT22;50739;45.670;11.936;2023-03-31T23:16:02;11.04;90.44
62476;DHT22;50739;45.670;11.936;2023-03-31T23:21:06;11.07;90.21
62476;DHT22;50739;45.670;11.936;2023-03-31T23:26:08;11.04;89.52
62476;DHT22;50739;45.670;11.936;2023-03-31T23:31:11;10.99;89.84
62476;DHT22;50739;45.670;11.936;2023-03-31T23:36:16;10.89;89.90
62476;DHT22;50739;45.670;11.936;2023-03-31T23:41:20;10.73;89.72
62476;DHT22;50739;45.670;11.936;2023-03-31T23:46:23;10.59;89.57
62476;DHT22;50739;45.670;11.936;2023-03-31T23:51:27;10.45;90.82
62476;DHT22;50739;45.670;11.936;2023-03-31T23:56:29;10.54;90.38
